createdAt,value
2022-09-27T00:01:10.892Z,59.30
2022-09-27T00:03:41.013Z,59.70
2022-09-27T00:06:20.669Z,65.10
2022-09-27T00:08:47.604Z,60.10
2022-09-27T00:11:30.906Z,65.60
2022-09-27T00:14:33.829Z,60.70
2022-09-27T00:17:01.178Z,62.30
2022-09-27T00:19:28.530Z,66.90
2022-09-27T00:21:56.783Z,63.30
2022-09-27T00:24:24.178Z,54.20
2022-09-27T00:26:51.263Z,56.10
2022-09-27T00:29:21.122Z,54.40
2022-09-27T00:31:52.995Z,53.00
2022-09-27T00:34:24.020Z,56.00
2022-09-27T00:36:52.511Z,60.20
2022-09-27T00:39:19.620Z,60.10
2022-09-27T00:42:11.054Z,50.80
2022-09-27T00:44:39.940Z,52.90
2022-09-27T00:47:23.218Z,54.50
2022-09-27T00:50:33.524Z,55.00
2022-09-27T00:53:29.962Z,55.70
2022-09-27T00:56:04.494Z,72.00
2022-09-27T00:58:38.297Z,75.50
2022-09-27T01:01:10.908Z,60.90
2022-09-27T01:04:09.984Z,54.70
2022-09-27T01:06:38.771Z,53.10
2022-09-27T01:09:08.681Z,55.00
2022-09-27T01:11:54.736Z,51.20
2022-09-27T01:14:59.995Z,49.70
2022-09-27T01:18:10.056Z,49.90
2022-09-27T01:21:16.120Z,44.60
2022-09-27T01:24:16.634Z,45.00
2022-09-27T01:27:06.169Z,46.60
2022-09-27T01:29:55.846Z,54.80
2022-09-27T01:32:39.651Z,57.10
2022-09-27T01:35:26.950Z,61.40
2022-09-27T01:38:39.171Z,59.70
2022-09-27T01:41:25.823Z,57.60
2022-09-27T01:44:01.587Z,49.00
2022-09-27T01:46:46.387Z,43.40
2022-09-27T01:49:22.111Z,52.20
2022-09-27T01:52:01.515Z,47.50
2022-09-27T01:54:40.092Z,48.40
2022-09-27T01:57:11.236Z,46.80
2022-09-27T01:59:51.178Z,46.20
2022-09-27T02:02:25.412Z,42.50
2022-09-27T02:11:16.775Z,38.00
2022-09-27T02:13:47.466Z,35.80
2022-09-27T02:16:39.114Z,37.80
2022-09-27T02:19:36.298Z,30.80
2022-09-27T02:22:38.139Z,33.90
2022-09-27T02:25:25.522Z,28.20
2022-09-27T02:28:36.788Z,27.20
2022-09-27T02:31:24.203Z,32.40
2022-09-27T02:34:15.804Z,26.70
2022-09-27T02:36:44.361Z,29.30
2022-09-27T02:39:17.772Z,28.80
2022-09-27T02:41:48.129Z,32.60
2022-09-27T02:44:23.393Z,31.70
2022-09-27T02:47:32.649Z,30.50
2022-09-27T02:50:10.923Z,33.20
2022-09-27T02:52:46.452Z,35.40
2022-09-27T02:55:45.802Z,39.60
2022-09-27T02:58:37.242Z,36.80
2022-09-27T03:01:19.847Z,32.60
2022-09-27T03:03:58.462Z,40.10
2022-09-27T03:06:36.390Z,32.80
2022-09-27T03:09:15.225Z,41.80
2022-09-27T03:11:47.444Z,39.60
2022-09-27T03:14:17.848Z,37.30
2022-09-27T03:16:50.881Z,33.70
2022-09-27T03:19:26.473Z,35.00
2022-09-27T03:21:54.977Z,32.10
2022-09-27T03:24:24.507Z,33.30
2022-09-27T03:27:06.353Z,33.90
2022-09-27T03:29:38.769Z,31.00
2022-09-27T03:32:08.442Z,30.10
2022-09-27T03:34:40.231Z,29.40
2022-09-27T03:37:09.223Z,28.70
2022-09-27T03:39:45.359Z,31.90
2022-09-27T03:42:25.917Z,30.00
2022-09-27T03:44:56.971Z,27.70
2022-09-27T03:47:25.755Z,28.60
2022-09-27T03:49:54.216Z,27.80
2022-09-27T03:52:22.704Z,29.80
2022-09-27T03:54:56.373Z,24.90
2022-09-27T03:57:35.220Z,27.30
2022-09-27T04:00:07.286Z,23.10
2022-09-27T04:02:35.303Z,25.50
2022-09-27T04:05:03.542Z,26.10
2022-09-27T04:07:32.890Z,21.30
2022-09-27T04:10:09.222Z,21.20
2022-09-27T04:12:43.130Z,24.90
2022-09-27T04:15:14.468Z,22.90
2022-09-27T04:17:45.823Z,23.50
2022-09-27T04:20:27.974Z,23.60
2022-09-27T04:23:17.708Z,21.90
2022-09-27T04:25:51.161Z,23.00
2022-09-27T04:28:22.223Z,23.90
2022-09-27T04:30:50.853Z,27.70
2022-09-27T04:33:19.048Z,28.10
2022-09-27T04:36:05.266Z,28.40
2022-09-27T04:38:33.239Z,25.60
2022-09-27T04:41:03.942Z,29.60
2022-09-27T04:43:32.257Z,29.00
2022-09-27T04:46:00.165Z,25.00
2022-09-27T04:48:28.193Z,28.50
2022-09-27T04:51:00.682Z,23.00
2022-09-27T04:53:30.053Z,26.30
2022-09-27T04:55:59.063Z,28.30
2022-09-27T04:58:29.103Z,22.40
2022-09-27T05:00:57.716Z,25.50
2022-09-27T05:03:31.683Z,33.70
2022-09-27T05:06:05.068Z,26.40
2022-09-27T05:08:33.453Z,29.70
2022-09-27T05:11:05.132Z,27.40
2022-09-27T05:13:33.913Z,23.00
2022-09-27T05:16:04.650Z,25.20
2022-09-27T05:18:33.779Z,29.50
2022-09-27T05:21:05.153Z,25.50
2022-09-27T05:23:37.423Z,26.50
2022-09-27T05:26:06.962Z,23.90
2022-09-27T05:28:39.187Z,25.60
2022-09-27T05:31:08.275Z,26.80
2022-09-27T05:33:39.588Z,25.40
2022-09-27T05:36:15.411Z,28.60
2022-09-27T05:38:44.331Z,26.70
2022-09-27T05:41:13.434Z,27.70
2022-09-27T05:43:42.231Z,28.20
2022-09-27T05:46:10.762Z,25.30
2022-09-27T05:48:40.875Z,26.10
2022-09-27T05:51:12.268Z,29.40
2022-09-27T05:53:42.390Z,21.70
2022-09-27T05:56:12.404Z,27.70
2022-09-27T05:58:41.610Z,26.70
2022-09-27T06:01:21.072Z,25.00
2022-09-27T06:04:16.668Z,23.00
2022-09-27T06:06:56.634Z,24.60
2022-09-27T06:09:46.547Z,27.20
2022-09-27T06:12:21.406Z,25.80
2022-09-27T06:14:57.818Z,26.60
2022-09-27T06:17:31.083Z,27.50
2022-09-27T06:20:57.544Z,28.60
2022-09-27T06:23:22.283Z,28.20
2022-09-27T06:26:10.969Z,25.50
2022-09-27T06:28:42.720Z,24.40
2022-09-27T06:31:22.288Z,23.40
2022-09-27T06:37:21.995Z,24.00
2022-09-27T06:39:53.537Z,24.40
2022-09-27T06:42:24.693Z,25.70
2022-09-27T06:44:54.494Z,26.00
2022-09-27T06:47:28.499Z,24.00
2022-09-27T06:49:58.811Z,23.30
2022-09-27T06:52:35.989Z,24.90
2022-09-27T06:55:25.760Z,23.30
2022-09-27T06:58:21.880Z,26.30
2022-09-27T07:00:54.642Z,27.20
2022-09-27T07:06:20.066Z,26.40
2022-09-27T07:08:55.089Z,30.80
2022-09-27T07:11:47.125Z,29.60
2022-09-27T07:14:13.873Z,29.90
2022-09-27T07:17:01.157Z,25.10
2022-09-27T07:19:33.427Z,24.60
2022-09-27T07:22:07.547Z,21.50
2022-09-27T07:24:44.482Z,23.80
2022-09-27T07:27:22.564Z,25.10
2022-09-27T07:29:52.455Z,24.90
2022-09-27T07:32:28.075Z,23.90
2022-09-27T07:34:59.355Z,22.10
2022-09-27T07:37:36.774Z,18.30
2022-09-27T07:40:10.351Z,20.70
2022-09-27T07:42:39.241Z,20.60
2022-09-27T07:45:19.100Z,19.50
2022-09-27T07:47:53.501Z,21.90
2022-09-27T07:50:33.845Z,21.10
2022-09-27T07:53:18.609Z,19.20
2022-09-27T07:55:59.637Z,15.50
2022-09-27T07:58:31.885Z,15.70
2022-09-27T08:01:15.184Z,16.90
2022-09-27T08:06:28.947Z,16.60
2022-09-27T08:09:35.371Z,16.90
2022-09-27T08:12:09.587Z,17.90
2022-09-27T08:14:43.970Z,15.60
2022-09-27T08:17:23.709Z,14.80
2022-09-27T08:19:58.471Z,13.50
2022-09-27T08:22:31.852Z,12.10
2022-09-27T08:25:07.397Z,12.40
2022-09-27T08:27:45.011Z,13.00
2022-09-27T08:30:15.673Z,17.10
2022-09-27T08:33:04.854Z,13.40
2022-09-27T08:35:44.621Z,11.70
2022-09-27T08:38:15.801Z,11.60
2022-09-27T08:41:17.833Z,12.70
2022-09-27T08:44:08.128Z,13.10
2022-09-27T08:47:00.893Z,12.00
2022-09-27T08:50:09.535Z,14.20
2022-09-27T08:53:15.371Z,14.20
2022-09-27T08:55:50.797Z,12.70
2022-09-27T08:58:36.496Z,12.70
2022-09-27T09:01:12.021Z,11.40
2022-09-27T09:03:58.280Z,10.00
2022-09-27T09:06:50.601Z,11.90
2022-09-27T09:09:40.565Z,13.80
2022-09-27T09:12:50.761Z,13.10
2022-09-27T09:15:58.630Z,19.90
2022-09-27T09:18:33.216Z,19.50
2022-09-27T09:21:32.609Z,16.30
2022-09-27T09:24:27.590Z,16.40
2022-09-27T09:30:23.595Z,18.60
2022-09-27T09:33:23.992Z,14.20
2022-09-27T09:36:09.720Z,17.70
2022-09-27T09:39:03.541Z,17.50
2022-09-27T09:42:09.557Z,16.90
2022-09-27T09:45:13.725Z,18.00
2022-09-27T09:48:27.432Z,16.00
2022-09-27T09:51:03.038Z,18.80
2022-09-27T09:54:28.330Z,16.60
2022-09-27T09:57:52.886Z,17.20
2022-09-27T10:01:03.202Z,17.00
2022-09-27T10:04:41.836Z,16.50
2022-09-27T10:08:57.944Z,16.70
2022-09-27T10:10:38.508Z,16.00
2022-09-27T10:17:17.973Z,20.20
2022-09-27T10:20:09.469Z,17.40
2022-09-27T10:23:41.505Z,16.80
2022-09-27T10:26:34.661Z,17.30
2022-09-27T10:29:37.657Z,17.30
2022-09-27T10:32:45.214Z,17.60
2022-09-27T10:36:05.858Z,16.30
2022-09-27T10:42:37.130Z,17.30
2022-09-27T10:45:00.216Z,16.10
2022-09-27T10:48:12.085Z,16.60
2022-09-27T11:00:41.202Z,18.50
2022-09-27T11:03:45.646Z,16.80
2022-09-27T11:07:13.236Z,20.50
2022-09-27T11:10:46.235Z,16.10
2022-09-27T11:13:49.299Z,16.80
2022-09-27T11:17:30.475Z,16.60
2022-09-27T11:20:40.735Z,15.50
2022-09-27T11:23:54.284Z,14.80
2022-09-27T11:26:43.319Z,15.70
2022-09-27T11:29:39.320Z,14.60
2022-09-27T11:32:32.615Z,13.20
2022-09-27T11:35:50.908Z,13.50
2022-09-27T11:39:14.035Z,12.50
2022-09-27T11:42:52.918Z,13.30
2022-09-27T11:46:28.112Z,13.80
2022-09-27T11:49:51.341Z,18.10
2022-09-27T11:53:00.080Z,18.30
2022-09-27T11:56:07.333Z,17.70
2022-09-27T11:59:25.373Z,17.70
2022-09-27T12:02:32.180Z,17.40
2022-09-27T12:06:19.336Z,15.90
2022-09-27T12:09:42.813Z,17.10
2022-09-27T12:12:23.087Z,15.20
2022-09-27T12:15:18.997Z,13.30
2022-09-27T12:17:54.785Z,14.70
2022-09-27T12:20:32.668Z,14.00
2022-09-27T12:23:36.423Z,15.20
2022-09-27T12:26:24.119Z,13.60
2022-09-27T12:29:26.018Z,13.20
2022-09-27T12:32:48.375Z,12.00
2022-09-27T12:35:32.460Z,16.30
2022-09-27T12:38:31.731Z,13.10
2022-09-27T12:41:10.383Z,11.30
2022-09-27T12:43:54.700Z,14.50
2022-09-27T12:46:42.141Z,12.80
2022-09-27T12:49:37.665Z,11.60
2022-09-27T12:52:23.776Z,11.90
2022-09-27T12:55:24.413Z,16.30
2022-09-27T12:58:35.037Z,11.70
2022-09-27T13:01:36.819Z,12.30
2022-09-27T13:04:32.519Z,11.60
2022-09-27T13:07:45.346Z,16.30
2022-09-27T13:11:07.595Z,14.20
2022-09-27T13:13:48.791Z,14.50
2022-09-27T13:16:22.435Z,12.20
2022-09-27T13:18:58.437Z,13.80
2022-09-27T13:21:47.679Z,11.40
2022-09-27T13:24:51.037Z,11.70
2022-09-27T13:30:13.014Z,10.50
2022-09-27T13:33:19.149Z,13.80
2022-09-27T13:36:08.617Z,10.70
2022-09-27T13:38:46.073Z,12.40
2022-09-27T13:41:26.610Z,16.30
2022-09-27T13:44:26.853Z,9.90
2022-09-27T13:47:47.826Z,9.00
2022-09-27T13:51:53.875Z,10.30
2022-09-27T13:54:33.180Z,15.60
2022-09-27T13:57:59.831Z,8.00
2022-09-27T14:01:27.750Z,10.20
2022-09-27T14:04:35.954Z,9.70
2022-09-27T14:07:56.144Z,14.10
2022-09-27T14:10:58.526Z,10.30
2022-09-27T14:13:41.324Z,9.30
2022-09-27T14:16:29.941Z,10.50
2022-09-27T14:18:59.802Z,11.10
2022-09-27T14:21:33.635Z,10.00
2022-09-27T14:24:28.629Z,9.10
2022-09-27T14:27:17.801Z,11.30
2022-09-27T14:29:53.953Z,11.10
2022-09-27T14:32:49.923Z,11.70
2022-09-27T14:35:48.872Z,9.80
2022-09-27T14:38:37.676Z,10.60
2022-09-27T14:45:42.238Z,7.80
2022-09-27T14:48:30.621Z,12.30
2022-09-27T14:51:19.589Z,9.00
2022-09-27T14:53:58.643Z,10.40
2022-09-27T14:56:40.637Z,12.80
2022-09-27T14:59:29.238Z,8.30
2022-09-27T15:02:03.827Z,8.20
2022-09-27T15:04:32.802Z,10.30
2022-09-27T15:07:02.642Z,15.30
2022-09-27T15:09:33.963Z,10.50
2022-09-27T15:12:05.433Z,10.40
2022-09-27T15:14:54.009Z,10.20
2022-09-27T15:17:54.590Z,11.50
2022-09-27T15:21:36.561Z,10.00
2022-09-27T15:29:00.730Z,16.10
2022-09-27T15:31:35.471Z,15.80
2022-09-27T15:34:41.612Z,11.90
2022-09-27T15:37:44.232Z,13.60
2022-09-27T15:40:23.643Z,13.20
2022-09-27T15:43:46.921Z,12.90
2022-09-27T15:47:01.777Z,18.60
2022-09-27T15:49:40.487Z,15.50
2022-09-27T15:52:55.308Z,18.50
2022-09-27T15:55:28.130Z,12.90
2022-09-27T16:01:06.139Z,19.60
2022-09-27T16:03:41.338Z,15.40
2022-09-27T16:06:15.539Z,15.20
2022-09-27T16:08:57.146Z,19.10
2022-09-27T16:11:34.925Z,21.10
2022-09-27T16:14:24.226Z,22.00
2022-09-27T16:17:08.812Z,24.20
2022-09-27T16:19:36.955Z,17.70
2022-09-27T16:22:05.686Z,15.40
2022-09-27T16:24:40.541Z,17.60
2022-09-27T16:27:34.511Z,13.40
2022-09-27T16:30:26.636Z,5.00
2022-09-27T16:33:43.307Z,3.00
2022-09-27T16:36:20.224Z,2.90
2022-09-27T16:39:11.889Z,4.30
2022-09-27T16:41:47.409Z,4.00
2022-09-27T16:44:21.686Z,3.70
2022-09-27T16:46:57.527Z,4.30
2022-09-27T16:49:47.932Z,182.00
2022-09-27T16:52:20.680Z,7.00
2022-09-27T16:55:09.342Z,5.60
2022-09-27T16:57:55.729Z,4.70
2022-09-27T17:00:44.996Z,7.50
2022-09-27T17:03:24.079Z,25.90
2022-09-27T17:05:54.194Z,19.60
2022-09-27T17:08:45.043Z,13.40
2022-09-27T17:11:27.887Z,11.80
2022-09-27T17:13:56.458Z,7.50
2022-09-27T17:16:29.148Z,8.10
2022-09-27T17:19:07.452Z,6.60
2022-09-27T17:22:10.076Z,4.30
2022-09-27T17:24:47.552Z,6.40
2022-09-27T17:27:29.121Z,7.00
2022-09-27T17:30:08.460Z,8.20
2022-09-27T17:42:54.407Z,4.90
2022-09-27T17:45:30.467Z,6.10
2022-09-27T17:48:21.612Z,4.60
2022-09-27T17:50:55.233Z,5.00
2022-09-27T17:53:27.275Z,4.60
2022-09-27T17:56:05.655Z,5.30
2022-09-27T17:58:37.604Z,5.40
2022-09-27T18:01:07.750Z,7.20
2022-09-27T18:03:41.144Z,6.40
2022-09-27T18:06:15.985Z,6.90
2022-09-27T18:08:47.690Z,7.70
2022-09-27T18:11:52.286Z,7.50
2022-09-27T18:14:41.253Z,11.40
2022-09-27T18:17:14.774Z,11.30
2022-09-27T18:19:53.348Z,16.00
2022-09-27T18:22:30.023Z,17.20
2022-09-27T18:25:06.531Z,21.40
2022-09-27T18:27:41.826Z,48.30
2022-09-27T18:32:41.998Z,24.20
2022-09-27T18:35:11.031Z,15.20
2022-09-27T18:37:44.614Z,17.70
2022-09-27T18:40:24.204Z,14.40
2022-09-27T18:43:06.137Z,15.00
2022-09-27T18:45:41.883Z,16.60
2022-09-27T18:48:11.289Z,16.70
2022-09-27T18:50:52.668Z,17.90
2022-09-27T18:53:39.683Z,16.70
2022-09-27T18:57:27.156Z,15.80
2022-09-27T19:04:26.141Z,13.50
2022-09-27T19:07:58.230Z,11.80
2022-09-27T19:11:15.538Z,15.30
2022-09-27T19:15:26.611Z,12.30
2022-09-27T19:29:07.897Z,12.20
2022-09-27T19:32:33.160Z,12.80
2022-09-27T19:39:36.374Z,10.50
2022-09-27T20:07:51.764Z,10.50
2022-09-27T20:10:24.549Z,9.50
2022-09-27T20:13:07.681Z,9.70
2022-09-27T20:19:41.637Z,12.10
2022-09-27T20:25:32.945Z,13.10
2022-09-27T20:27:30.670Z,17.90
2022-09-27T20:30:18.595Z,14.40
2022-09-27T20:35:32.532Z,15.30
2022-09-27T20:45:42.111Z,15.70
2022-09-27T20:48:56.464Z,17.60
2022-09-27T20:51:49.934Z,21.40
2022-09-27T20:54:19.762Z,20.70
2022-09-27T20:56:51.045Z,21.20
2022-09-27T20:59:22.167Z,20.20
2022-09-27T21:01:55.009Z,20.60
2022-09-27T21:04:24.024Z,22.70
2022-09-27T21:06:54.247Z,17.20
2022-09-27T21:09:24.714Z,18.90
2022-09-27T21:11:54.448Z,19.50
2022-09-27T21:14:23.620Z,18.20
2022-09-27T21:16:51.924Z,18.90
2022-09-27T21:19:20.176Z,16.80
2022-09-27T21:21:48.344Z,14.90
2022-09-27T21:24:16.829Z,15.40
2022-09-27T21:26:45.304Z,18.10
2022-09-27T21:29:14.005Z,13.80
2022-09-27T21:31:46.297Z,15.20
2022-09-27T21:34:15.157Z,16.00
2022-09-27T21:36:43.262Z,18.30
2022-09-27T21:39:12.029Z,15.10
2022-09-27T21:41:40.741Z,16.40
2022-09-27T21:44:11.758Z,12.20
2022-09-27T21:46:41.696Z,14.00
2022-09-27T21:49:11.306Z,15.70
2022-09-27T21:51:42.451Z,14.80
2022-09-27T21:54:14.813Z,14.90
2022-09-27T21:56:46.985Z,18.60
2022-09-27T22:05:33.744Z,19.10
2022-09-27T22:08:01.689Z,20.10
2022-09-27T22:10:29.929Z,16.60
2022-09-27T22:12:57.983Z,14.90
2022-09-27T22:15:25.894Z,22.60
2022-09-27T22:17:53.777Z,16.00
2022-09-27T22:20:21.970Z,17.60
2022-09-27T22:22:50.121Z,16.20
2022-09-27T22:25:17.947Z,17.50
2022-09-27T22:27:45.932Z,17.50
2022-09-27T22:30:14.608Z,18.30
2022-09-27T22:32:46.179Z,18.00
2022-09-27T22:35:14.687Z,19.30
2022-09-27T22:37:42.815Z,19.40
2022-09-27T22:40:13.321Z,15.30
2022-09-27T22:42:41.653Z,15.90
2022-09-27T22:45:10.589Z,14.20
2022-09-27T22:47:38.756Z,15.70
2022-09-27T22:50:09.590Z,18.00
2022-09-27T22:52:37.805Z,12.70
2022-09-27T22:55:06.794Z,20.00
2022-09-27T22:57:34.758Z,12.70
2022-09-27T23:00:06.020Z,17.90
2022-09-27T23:02:34.590Z,17.50
2022-09-27T23:05:02.567Z,21.10
2022-09-27T23:07:30.502Z,17.80
2022-09-27T23:09:58.464Z,15.70
2022-09-27T23:12:26.440Z,15.60
2022-09-27T23:14:55.674Z,13.90
2022-09-27T23:17:23.579Z,15.40
2022-09-27T23:19:51.620Z,13.00
2022-09-27T23:22:19.576Z,17.80
2022-09-27T23:24:47.757Z,15.00
2022-09-27T23:27:34.774Z,13.90
2022-09-27T23:30:02.837Z,16.40
2022-09-27T23:32:32.301Z,15.50
2022-09-27T23:35:00.254Z,13.00
2022-09-27T23:37:28.439Z,18.00
2022-09-27T23:39:57.521Z,14.00
2022-09-27T23:42:27.207Z,15.90
2022-09-27T23:44:56.122Z,14.00
2022-09-27T23:47:24.472Z,15.50
2022-09-27T23:49:54.426Z,13.10
2022-09-27T23:52:25.151Z,10.70
2022-09-27T23:54:53.332Z,11.40
2022-09-27T23:57:21.721Z,13.30
2022-09-27T23:59:50.102Z,9.50
